• Join FlightAware (Why Join?)
  • Login
  • US Flag 
08:20PM EDT


 

Airport Tracker/Info


-or-


 

Live Flight TrackerFlight Track Log ✈ UAL33 ✈ 29-Apr-2014 ✈ RJAA / NRT - KLAX

Flight Track Log - Related Links

Times and Time Zones

All times are in EDT time to prevent confusion due to time zone crossing. See the UAL33 flight status page for this flight to view local times or setup timezone preferences in your user account.

Time Position Orientation Groundspeed Altitude Reporting Facility
EDT Latitude Longitude Course Direction KTS MPH feet Rate Location/Type
04:56AM 35.6815 140.4352 150° Southeast 204 235 3,500  Level FlightAware ADS-B (RJTK)
04:57AM 35.6589 140.4516 149° Southeast 228 262 4,100 1,500 Climbing FlightAware ADS-B (RJTK)
04:57AM 35.6440 140.4621 149° Southeast 244 281 4,500 1,920 Climbing FlightAware ADS-B (RJTK)
04:57AM 35.6210 140.4780 149° Southeast 261 300 5,400 2,520 Climbing FlightAware ADS-B
04:58AM 35.5983 140.4951 149° Southeast 264 304 6,400 2,880 Climbing FlightAware ADS-B (RJTK)
04:58AM 35.5777 140.5101 149° Southeast 261 300 7,300 2,760 Climbing FlightAware ADS-B (RJTK)
04:58AM 35.5544 140.5275 138° Southeast 266 306 8,300 2,460 Climbing FlightAware ADS-B (RJTK)
04:59AM 35.5490 140.5360 128° Southeast 276 318 8,600 2,100 Climbing FlightAware ADS-B
04:59AM 35.5460 140.5410 119° Southeast 278 320 8,800 3,300 Climbing FlightAware ADS-B
04:59AM 35.5423 140.5521 107° East 278 320 9,100 2,640 Climbing FlightAware ADS-B (RJTK)
04:59AM 35.5385 140.5858 96° East 289 333 9,900 1,560 Climbing FlightAware ADS-B (RJTK)
05:00AM 35.5323 140.6557 96° East 333 383 10,700 1,380 Climbing FlightAware ADS-B (RJTK)
05:00AM 35.5255 140.7338 96° East 364 419 11,800 2,040 Climbing FlightAware ADS-B (RJTK)
05:01AM 35.5176 140.8209 95° East 378 435 13,500 2,160 Climbing FlightAware ADS-B (RJTK)
05:02AM 35.5096 140.9053 95° East 401 461 14,700 2,100 Climbing FlightAware ADS-B (RJTK)
05:03AM 35.4802 141.1371 108° East 427 491 18,500 2,100 Climbing FlightAware ADS-B (RJTK)
05:04AM 35.4515 141.2313 110° East 440 506 19,700 1,800 Climbing FlightAware ADS-B (RJTK)
05:05AM 35.4223 141.3268 111° Southeast 455 524 21,000 1,920 Climbing FlightAware ADS-B (RJTK)
05:05AM 35.3921 141.4250 110° East 463 533 22,300 1,860 Climbing FlightAware ADS-B (RJTK)
05:06AM 35.3836 141.4691 96° East 472 543 22,800 1,680 Climbing FlightAware ADS-B (RJTK)
05:06AM 35.3950 141.5789 76° East 479 551 24,000 1,740 Climbing FlightAware ADS-B (RJTK)
05:07AM 35.4176 141.6870 77° East 489 563 25,200 1,620 Climbing FlightAware ADS-B (RJTK)
05:08AM 35.4403 141.7955 77° East 497 572 26,200 1,560 Climbing FlightAware ADS-B (RJTK)
05:09AM 35.4741 141.9583 77° East 507 583 27,800 1,500 Climbing FlightAware ADS-B (RJTK)
05:09AM 35.4980 142.0746 77° East 513 590 28,800 1,380 Climbing FlightAware ADS-B (RJTK)
05:10AM 35.5215 142.1884 77° East 520 598 29,700 1,140 Climbing FlightAware ADS-B (RJTK)
05:11AM 35.5554 142.3556 76° East 533 613 30,700 1,020 Climbing FlightAware ADS-B (RJTK)
05:12AM 35.5930 142.5417 76° East 544 626 31,800 900 Climbing FlightAware ADS-B (RJTK)
05:13AM 35.6175 142.6634 76° East 550 633 32,300 60 Climbing FlightAware ADS-B (RJTK)
05:15AM 35.7524 142.9214 57° Northeast  Level Estimated
05:16AM 35.7916 143.0902 74° East  Level FlightAware Approximate
05:17AM 35.8306 143.2591 74° East  Level FlightAware Approximate
05:18AM 35.9070 143.4074 87° East  Level Estimated
05:19AM 35.8970 143.5829 94° East  Level FlightAware Approximate
05:20AM 35.8868 143.7582 94° East  Level FlightAware Approximate
05:21AM 35.9627 143.9070 77° East  Level Estimated
05:22AM 35.9556 144.0828 93° East  Level FlightAware Approximate
05:23AM 36.0312 144.2320 78° East  Level Estimated
05:24AM 36.0488 144.4068 83° East  Level FlightAware Approximate
05:25AM 36.0661 144.5817 83° East  Level FlightAware Approximate
05:26AM 36.0832 144.7566 83° East  Level FlightAware Approximate
05:27AM 36.1001 144.9317 83° East  Level FlightAware Approximate
05:28AM 36.1167 145.1068 83° East  Level FlightAware Approximate
05:29AM 36.1330 145.2819 83° East  Level FlightAware Approximate
05:30AM 36.2073 145.4325 73° East  Level Estimated
05:31AM 36.2815 145.5836 68° East  Level Estimated
05:32AM 36.3112 145.7567 78° East  Level FlightAware Approximate
05:33AM 36.3407 145.9300 78° East  Level FlightAware Approximate
05:34AM 36.3700 146.1035 78° East  Level FlightAware Approximate
05:35AM 36.4434 146.2554 74° East  Level Estimated
05:36AM 36.4792 146.4272 75° East  Level FlightAware Approximate
05:37AM 36.5148 146.5991 76° East  Level FlightAware Approximate
05:38AM 36.5501 146.7711 76° East  Level FlightAware Approximate
05:39AM 36.5852 146.9433 76° East  Level FlightAware Approximate
05:40AM 36.6200 147.1157 76° East  Level FlightAware Approximate
05:41AM 36.6546 147.2882 76° East  Level FlightAware Approximate
05:42AM 36.6889 147.4609 76° East  Level FlightAware Approximate
05:43AM 36.7230 147.6337 76° East  Level FlightAware Approximate
05:44AM 36.7568 147.8067 76° East  Level FlightAware Approximate
05:45AM 36.7904 147.9798 76° East  Level FlightAware Approximate
05:46AM 36.8237 148.1531 76° East  Level FlightAware Approximate
05:47AM 36.8568 148.3265 77° East  Level FlightAware Approximate
05:48AM 36.9277 148.4814 84° East  Level Estimated
05:49AM 36.9372 148.6595 86° East  Level FlightAware Approximate
05:50AM 36.9464 148.8376 86° East  Level FlightAware Approximate
05:51AM 36.9554 149.0158 86° East  Level FlightAware Approximate
05:52AM 36.9641 149.1941 86° East  Level FlightAware Approximate
05:53AM 36.9725 149.3723 87° East  Level FlightAware Approximate
05:54AM 36.9806 149.5507 87° East  Level FlightAware Approximate
05:55AM 36.9885 149.7290 87° East  Level FlightAware Approximate
05:56AM 37.0579 149.8852 80° East  Level Estimated
05:57AM 37.0796 150.0619 81° East  Level FlightAware Approximate
05:58AM 37.1010 150.2388 81° East  Level FlightAware Approximate
05:59AM 37.1222 150.4157 81° East  Level FlightAware Approximate
06:00AM 37.1430 150.5928 82° East  Level FlightAware Approximate
06:01AM 37.1637 150.7699 82° East  Level FlightAware Approximate
06:02AM 37.1840 150.9472 82° East  Level FlightAware Approximate
06:03AM 37.2041 151.1245 82° East  Level FlightAware Approximate
06:04AM 37.2240 151.3019 82° East  Level FlightAware Approximate
06:05AM 37.2435 151.4794 82° East  Level FlightAware Approximate
06:06AM 37.2628 151.6571 82° East  Level FlightAware Approximate
06:07AM 37.2819 151.8348 82° East  Level FlightAware Approximate
06:08AM 37.3007 152.0126 82° East  Level FlightAware Approximate
06:09AM 37.3192 152.1904 82° East  Level FlightAware Approximate
06:10AM 37.3374 152.3684 83° East  Level FlightAware Approximate
06:11AM 37.3554 152.5465 83° East  Level FlightAware Approximate
06:12AM 37.3731 152.7246 83° East  Level FlightAware Approximate
06:13AM 37.3905 152.9028 83° East  Level FlightAware Approximate
06:14AM 37.4077 153.0811 83° East  Level FlightAware Approximate
06:15AM 37.4246 153.2595 83° East  Level FlightAware Approximate
06:16AM 37.4412 153.4380 83° East  Level FlightAware Approximate
06:17AM 37.5065 153.5979 82° East  Level Estimated
06:18AM 37.5250 153.7762 82° East  Level FlightAware Approximate
06:19AM 37.5433 153.9547 83° East  Level FlightAware Approximate
06:20AM 37.5613 154.1332 83° East  Level FlightAware Approximate
06:21AM 37.5791 154.3119 83° East  Level FlightAware Approximate
06:22AM 37.5965 154.4906 83° East  Level FlightAware Approximate
06:23AM 37.6137 154.6694 83° East  Level FlightAware Approximate
06:24AM 37.6307 154.8482 83° East  Level FlightAware Approximate
06:25AM 37.6473 155.0272 83° East  Level FlightAware Approximate
06:26AM 37.6637 155.2062 83° East  Level FlightAware Approximate
06:27AM 37.6799 155.3853 83° East  Level FlightAware Approximate
06:28AM 37.6957 155.5645 84° East  Level FlightAware Approximate
06:29AM 37.7113 155.7438 84° East  Level FlightAware Approximate
06:30AM 37.7266 155.9231 84° East  Level FlightAware Approximate
06:31AM 37.7416 156.1026 84° East  Level FlightAware Approximate
06:32AM 37.7564 156.2820 84° East  Level FlightAware Approximate
06:33AM 37.7709 156.4616 84° East  Level FlightAware Approximate
06:34AM 37.7851 156.6412 84° East  Level FlightAware Approximate
06:35AM 37.7991 156.8209 84° East  Level FlightAware Approximate
06:36AM 37.8127 157.0007 84° East  Level FlightAware Approximate
06:37AM 37.8261 157.1805 85° East  Level FlightAware Approximate
06:38AM 37.8393 157.3604 85° East  Level FlightAware Approximate
06:39AM 37.8521 157.5404 85° East  Level FlightAware Approximate
06:40AM 37.8647 157.7204 85° East  Level FlightAware Approximate
06:41AM 37.8770 157.9005 85° East  Level FlightAware Approximate
06:42AM 37.8890 158.0806 85° East  Level FlightAware Approximate
06:43AM 37.9008 158.2608 85° East  Level FlightAware Approximate
06:44AM 37.9123 158.4411 85° East  Level FlightAware Approximate
06:45AM 37.9235 158.6214 85° East  Level FlightAware Approximate
06:46AM 37.9344 158.8014 86° East  Level FlightAware Approximate
06:47AM 37.9450 158.9815 86° East  Level FlightAware Approximate
06:48AM 37.9554 159.1617 86° East  Level FlightAware Approximate
06:49AM 37.9655 159.3419 86° East  Level FlightAware Approximate
06:50AM 37.9753 159.5221 86° East  Level FlightAware Approximate
06:51AM 37.9849 159.7024 86° East  Level FlightAware Approximate
06:52AM 38.0430 159.8675 72° East  Level Estimated
06:53AM 38.0836 160.0409 73° East  Level FlightAware Approximate
06:54AM 38.1239 160.2145 73° East  Level FlightAware Approximate
06:55AM 38.1640 160.3882 74° East  Level FlightAware Approximate
06:56AM 38.2038 160.5622 74° East  Level FlightAware Approximate
06:57AM 38.2434 160.7364 74° East  Level FlightAware Approximate
06:58AM 38.2827 160.9108 74° East  Level FlightAware Approximate
06:59AM 38.3218 161.0853 74° East  Level FlightAware Approximate
07:00AM 38.3606 161.2600 74° East  Level FlightAware Approximate
07:01AM 38.3991 161.4350 74° East  Level FlightAware Approximate
07:02AM 38.4374 161.6101 74° East  Level FlightAware Approximate
07:03AM 38.4754 161.7854 74° East  Level FlightAware Approximate
07:04AM 38.5132 161.9608 75° East  Level FlightAware Approximate
07:05AM 38.5507 162.1365 75° East  Level FlightAware Approximate
07:06AM 38.5879 162.3123 75° East  Level FlightAware Approximate
07:07AM 38.6249 162.4884 75° East  Level FlightAware Approximate
07:08AM 38.6616 162.6646 75° East  Level FlightAware Approximate
07:09AM 38.6980 162.8409 75° East  Level FlightAware Approximate
07:10AM 38.7342 163.0175 75° East  Level FlightAware Approximate
07:11AM 38.7701 163.1942 75° East  Level FlightAware Approximate
07:12AM 38.8058 163.3712 75° East  Level FlightAware Approximate
07:12AM 39.1667 165.2833 76° East 560 644 39,000  Level Oakland Oceanic (ODAPS)
07:12AM 39.2000 165.4000 76° East 560 644 39,000  Level Oakland Oceanic (ODAPS)
07:13AM 38.8411 163.5483 76° East  Level FlightAware Approximate
07:13AM 39.2000 165.4167 76° East 563 648 39,000  Level Oakland Oceanic (ODAPS)
07:17AM 39.3667 166.2500 76° East 558 642 39,000  Level Oakland Oceanic (ODAPS)
07:22AM 39.5333 167.2000 77° East 557 641 39,000  Level Oakland Oceanic (ODAPS)
07:27AM 39.7000 168.1167 78° East 551 634 39,000  Level Oakland Oceanic (ODAPS)
07:27AM 39.7000 168.1667 77° East 550 633 39,000  Level Oakland Oceanic (ODAPS)
07:28AM 39.7500 168.4000 78° East 555 639 39,000  Level Oakland Oceanic (ODAPS)
07:32AM 39.8667 169.1000 79° East 553 636 39,000  Level Oakland Oceanic (ODAPS)
07:36AM 39.9833 169.9333 72° East 541 623 39,000  Level Oakland Oceanic (ODAPS)
07:37AM 40.0000 170.0000 72° East 555 639 39,000  Level FlightAware Transoceanic
07:37AM 40.0000 170.0000 72° East 551 634 39,000  Level Oakland Oceanic (ODAPS)
07:50AM 40.6000 172.5500 74° East 551 634 39,000  Level Oakland Oceanic (ODAPS)
08:04AM 41.1667 175.2500 75° East 551 634 39,000  Level Oakland Oceanic (ODAPS)
08:18AM 41.6667 177.9833 77° East 549 632 39,000  Level Oakland Oceanic (ODAPS)
08:28AM 42.0000 180.0000 79° East 538 619 39,000  Level Oakland Oceanic (ODAPS)
08:32AM 42.1000 -179.2667 79° East 533 613 39,000  Level Oakland Oceanic (ODAPS)
08:46AM 42.4500 -176.5167 81° East 534 615 39,000  Level Oakland Oceanic (ODAPS)
08:59AM 42.7333 -173.7333 83° East 538 619 39,000  Level Oakland Oceanic (ODAPS)
09:13AM 42.9333 -171.0000 84° East 523 602 39,000  Level Oakland Oceanic (ODAPS)
09:18AM 43.0000 -170.0000 94° East 515 593 39,000  Level Oakland Oceanic (ODAPS)
09:27AM 42.9000 -168.3000 96° East 512 589 39,600  Climbing Oakland Oceanic (ODAPS)
09:41AM 42.6833 -165.7000 97° East 506 582 40,000  Climbing Oakland Oceanic (ODAPS)
09:55AM 42.4000 -163.0667 99° East 514 592 40,000  Level Oakland Oceanic (ODAPS)
10:09AM 42.0500 -160.3667 100° East 531 611 40,000  Level Oakland Oceanic (ODAPS)
10:11AM 42.0000 -160.0000 94° East 520 598 40,000  Level Oakland Oceanic (ODAPS)
10:23AM 41.8500 -157.8000 96° East 506 582 40,000  Level Oakland Oceanic (ODAPS)
10:37AM 41.6333 -155.2333 97° East 506 582 40,000  Level Oakland Oceanic (ODAPS)
10:50AM 41.3500 -152.6500 99° East 513 590 40,000  Level Oakland Oceanic (ODAPS)
11:05AM 41.0000 -150.0000 94° East 508 585 40,000  Level Oakland Oceanic (ODAPS)
11:18AM 40.8333 -147.5167 96° East 510 587 40,000  Level Oakland Oceanic (ODAPS)
11:32AM 40.6000 -144.9500 97° East 513 590 40,000  Level Oakland Oceanic (ODAPS)
11:46AM 40.3167 -142.3667 99° East 520 598 40,000  Level Oakland Oceanic (ODAPS)
11:59AM 40.0000 -140.0000 94° East 516 594 41,000 60 Climbing Oakland Oceanic (ODAPS)
12:00PM 39.9833 -139.8333 94° East 517 595 41,000  Level Oakland Oceanic (ODAPS)
12:14PM 39.8167 -137.2667 96° East 504 580 41,000  Level Oakland Oceanic (ODAPS)
12:27PM 39.5833 -134.7500 98° East 517 595 41,000  Level Oakland Oceanic (ODAPS)
12:41PM 39.3000 -132.2167 99° East 517 595 41,000  Level Oakland Oceanic (ODAPS)
12:54PM 39.0000 -130.0000 102° East 513 590 41,000  Level Oakland Oceanic (ODAPS)
12:54PM 38.9833 -129.8500 102° East 512 589 41,000  Level Oakland Oceanic (ODAPS)
12:55PM 38.9708 -129.8223 102° East 517 595 41,000  Level FlightAware Transoceanic
12:55PM 38.9500 -129.7167 102° East 513 590 41,000 -60 Level Oakland Oceanic (ODAPS)
01:08PM 38.5592 -127.5078 111° Southeast 517 595 40,900  Descending Oakland Center
01:09PM 38.5347 -127.3601 103° East 513 590 41,000  Climbing FlightAware Transoceanic
01:09PM 38.5272 -127.3297 103° East 517 595 40,900  Descending Oakland Center
01:09PM 38.5167 -127.2333 105° East 514 592 41,000 60 Climbing Oakland Oceanic (ODAPS)
01:10PM 38.5008 -127.1799 104° East 513 590 41,000 -180 Level FlightAware Transoceanic
01:10PM 38.4894 -127.1186 105° East 515 593 40,900  Descending Oakland Center
01:11PM 38.4667 -127.0000 111° Southeast 513 590 41,000  Climbing FlightAware Transoceanic
01:11PM 38.4489 -126.9456 107° East 513 590 40,900  Descending Oakland Center
01:12PM 38.4158 -126.8324 111° Southeast 513 590 41,000 60 Climbing FlightAware Transoceanic
01:12PM 38.3897 -126.7850 115° Southeast 505 581 41,000  Level Oakland Center
01:13PM 38.3646 -126.6650 111° Southeast 513 590 41,000  Level FlightAware Transoceanic
01:13PM 38.3319 -126.6225 114° Southeast 505 581 41,000  Level Oakland Center
01:14PM 38.2717 -126.4600 115° Southeast 505 581 41,000  Level Oakland Center
01:15PM 38.2142 -126.2986 114° Southeast 505 581 41,000 -60 Level Oakland Center
01:16PM 38.1489 -126.1197 115° Southeast 506 582 40,900 -60 Descending Oakland Center
01:17PM 38.0886 -125.9594 115° Southeast 505 581 40,900  Level Oakland Center
01:18PM 38.0283 -125.7983 115° Southeast 506 582 40,900  Level Oakland Center
01:19PM 37.9692 -125.6364 115° Southeast 506 582 40,900  Level Oakland Center
01:20PM 37.9089 -125.4756 115° Southeast 506 582 41,000  Climbing Oakland Center
01:21PM 37.8469 -125.3147 116° Southeast 506 582 40,900  Descending Oakland Center
01:22PM 37.7858 -125.1539 116° Southeast 507 583 41,000  Climbing Oakland Center
01:23PM 37.7136 -124.9614 115° Southeast 507 583 40,900  Descending Oakland Center
01:24PM 37.6508 -124.8014 116° Southeast 508 585 41,000  Climbing Oakland Center
01:25PM 37.5903 -124.6411 115° Southeast 508 585 40,900  Descending Oakland Center
01:26PM 37.5281 -124.4806 116° Southeast 510 587 41,000  Climbing Oakland Center
01:27PM 37.4644 -124.3208 117° Southeast 510 587 40,900  Descending Oakland Center
01:28PM 37.4028 -124.1608 116° Southeast 510 587 41,000  Climbing Oakland Center
01:29PM 37.3392 -124.0019 117° Southeast 510 587 40,900  Descending Oakland Center
01:30PM 37.2750 -123.8414 117° Southeast 513 590 41,000  Climbing Oakland Center
01:31PM 37.1992 -123.6500 116° Southeast 513 590 41,000 -60 Level Oakland Center
01:32PM 37.1369 -123.4933 116° Southeast 511 588 40,900  Descending Oakland Center
01:33PM 37.0736 -123.3381 117° Southeast 510 587 41,000  Climbing Oakland Center
01:34PM 37.0122 -123.1828 116° Southeast 504 580 40,900  Descending Oakland Center
01:40PM 36.6314 -122.2580 117° Southeast 509 586 41,000  Climbing FlightAware ADS-B
01:43PM 36.4413 -121.8060 1000° North 487 560 41,000  Level FlightAware ADS-B
01:44PM 36.3826 -121.6670 118° Southeast 509 586 41,000  Level FlightAware ADS-B
01:44PM 36.3539 -121.6058 118° Southeast 507 583 41,000  Level Oakland Center
01:45PM 36.2744 -121.4203 118° Southeast 507 583 41,000  Level Oakland Center
01:46PM 36.2089 -121.2636 117° Southeast 508 585 41,000  Level Oakland Center
01:47PM 36.1419 -121.1100 118° Southeast 508 585 41,000 -60 Level Oakland Center
01:49PM 36.0753 -120.9550 118° Southeast 509 586 40,900  Descending Oakland Center
01:54PM 35.6779 -120.0480 119° Southeast 509 586 41,000  Climbing FlightAware ADS-B
01:55PM 35.6352 -119.9777 139° Southeast 501 577 41,000  Level FlightAware ADS-B
01:56PM 35.4982 -119.8499 145° Southeast 491 565 41,000 -2,400 Level FlightAware ADS-B
01:59PM 35.1235 -119.5282 144° Southeast 485 558 30,500 -3,300 Descending FlightAware ADS-B
02:00PM 35.0448 -119.4611 144° Southeast 497 572 27,800 -2,700 Descending FlightAware ADS-B
02:01PM 34.9594 -119.3885 144° Southeast 484 557 26,600 -1,380 Descending FlightAware ADS-B
02:02PM 34.8904 -119.3301 145° Southeast 444 511 25,900 -1,560 Descending FlightAware ADS-B
02:02PM 34.8329 -119.2812 145° Southeast 433 498 24,700 -2,100 Descending FlightAware ADS-B
02:03PM 34.7595 -119.2194 145° Southeast 418 481 23,100 -2,220 Descending FlightAware ADS-B
02:04PM 34.6995 -119.1685 145° Southeast 408 470 21,700 -2,400 Descending FlightAware ADS-B
02:04PM 34.6427 -119.1208 145° Southeast 400 460 20,100 -1,980 Descending FlightAware ADS-B
02:05PM 34.5750 -119.0637 145° Southeast 393 452 19,000 -1,560 Descending FlightAware ADS-B
02:06PM 34.5141 -119.0129 145° Southeast 385 443 17,900 -1,680 Descending FlightAware ADS-B
02:06PM 34.4554 -118.9636 145° Southeast 382 440 16,800 -1,680 Descending FlightAware ADS-B
02:07PM 34.3970 -118.9149 145° Southeast 382 440 15,700 -1,620 Descending FlightAware ADS-B
02:08PM 34.3357 -118.8744 158° South 379 436 14,700 -1,560 Descending FlightAware ADS-B
02:08PM 34.2862 -118.8555 163° South 373 429 13,900 -1,680 Descending FlightAware ADS-B (OPMT / MUX)
02:08PM 34.2686 -118.8490 162° South 372 428 13,600 -1,740 Descending FlightAware ADS-B
02:08PM 34.2577 -118.8450 163° South 371 427 13,300 -1,620 Descending FlightAware ADS-B
02:09PM 34.2104 -118.8275 162° South 364 419 12,600 -1,620 Descending FlightAware ADS-B (OPMT / MUX)
02:09PM 34.1715 -118.8132 163° South 360 414 12,000 -1,200 Descending FlightAware ADS-B
02:10PM 34.1207 -118.7945 163° South 353 406 11,500 -1,080 Descending FlightAware ADS-B (OPMT / MUX)
02:10PM 34.1107 -118.7908 163° South 355 409 11,300 -1,440 Descending FlightAware ADS-B
02:10PM 34.0797 -118.7776 151° Southeast 349 402 10,900 -1,140 Descending FlightAware ADS-B
02:11PM 34.0564 -118.7563 132° Southeast 339 390 10,600 -1,080 Descending FlightAware ADS-B
02:11PM 34.0394 -118.7215 107° East 330 380 10,200 -600 Descending FlightAware ADS-B
02:12PM 34.0299 -118.6484 97° East 328 377 10,000 -360 Descending FlightAware ADS-B
02:12PM 34.0268 -118.6179 97° East 319 367 9,900 -420 Descending FlightAware ADS-B
02:12PM 34.0248 -118.5984 163° South 353 406 9,800 -840 Descending FlightAware ADS-B (OPMT / MUX)
02:12PM 34.0230 -118.5794 96° East 303 349 9,600 -960 Descending FlightAware ADS-B
02:13PM 34.0206 -118.5556 96° East 303 349 9,400 -900 Descending FlightAware ADS-B (OPMT / MUX)
02:13PM 34.0196 -118.5455 97° East 294 338 9,300 -960 Descending FlightAware ADS-B
02:14PM 34.0114 -118.4544 89° East 268 308 8,400 -1,080 Descending FlightAware ADS-B (OPMT / MUX)
02:14PM 34.0123 -118.4292 86° East 269 310 8,000 -1,620 Descending FlightAware ADS-B (OPMT / MUX)
02:14PM 34.0140 -118.4061 84° East 269 310 7,600 -2,040 Descending FlightAware ADS-B (OPMT / MUX)
02:14PM 34.0160 -118.3849 83° East 265 305 7,000 -1,800 Descending FlightAware ADS-B (OPMT / MUX)
02:15PM 34.0178 -118.3646 83° East 250 288 6,700 -900 Descending FlightAware ADS-B (OPMT / MUX)
02:15PM 34.0186 -118.3568 84° East 246 283 6,700 -1,560 Level FlightAware ADS-B
02:15PM 34.0219 -118.3209 83° East 229 264 5,800 -1,800 Descending FlightAware ADS-B (OPMT / MUX)
02:15PM 34.0225 -118.3148 84° East 231 266 5,700 -2,160 Descending FlightAware ADS-B
02:15PM 34.0236 -118.3018 84° East 230 265 5,300 -1,500 Descending FlightAware ADS-B (OPMT / MUX)
02:16PM 34.0259 -118.2680 85° East 225 259 4,800 -1,440 Descending FlightAware ADS-B
02:16PM 34.0281 -118.2407 84° East 230 265 4,100 -1,140 Descending FlightAware ADS-B (OPMT / MUX)
02:17PM 34.0256 -118.1781 84° East 213 245 3,100 -720 Descending Los Angeles Center
02:18PM 33.9767 -118.1803 182° South 205 236 2,600 -240 Descending Los Angeles Center
02:19PM 33.9683 -118.2353 260° West 182 209 2,600 -360 Level Los Angeles Center
02:20PM 33.9622 -118.2917 263° West 174 200 1,900 -840 Descending Los Angeles Center
02:22PM 33.9558 -118.3542 263° West 165 190 900 -840 Descending Los Angeles Center
02:23PM 33.9514 -118.4014 264° West 153 176 200 -720 Descending Los Angeles Center